createdAt,value
2023-01-11T00:00:47.065Z,-0.92
2023-01-11T00:03:14.227Z,-0.93
2023-01-11T00:05:42.317Z,-0.95
2023-01-11T00:08:09.540Z,-0.97
2023-01-11T00:10:36.601Z,-1.00
2023-01-11T00:13:03.868Z,-1.02
2023-01-11T00:15:30.599Z,-1.07
2023-01-11T00:17:57.786Z,-1.04
2023-01-11T00:20:24.697Z,-1.11
2023-01-11T00:22:51.368Z,-1.11
2023-01-11T00:25:18.184Z,-1.14
2023-01-11T00:27:44.817Z,-1.21
2023-01-11T00:30:11.879Z,-1.23
2023-01-11T00:32:38.421Z,-1.17
2023-01-11T00:35:05.407Z,-1.11
2023-01-11T00:37:32.003Z,-1.10
2023-01-11T00:39:58.586Z,-1.18
2023-01-11T00:42:43.766Z,-1.29
2023-01-11T00:45:28.795Z,-1.15
2023-01-11T00:47:58.327Z,-1.19
2023-01-11T00:50:25.845Z,-1.25
2023-01-11T00:52:52.393Z,-1.30
2023-01-11T00:55:19.060Z,-1.32
2023-01-11T00:57:45.653Z,-1.39
2023-01-11T01:00:12.983Z,-1.40
2023-01-11T01:02:39.914Z,-1.38
2023-01-11T01:05:07.308Z,-1.41
2023-01-11T01:07:33.826Z,-1.45
2023-01-11T01:10:00.400Z,-1.41
2023-01-11T01:12:45.743Z,-1.39
2023-01-11T01:15:12.408Z,-1.42
2023-01-11T01:17:39.007Z,-1.43
2023-01-11T01:20:06.636Z,-1.41
2023-01-11T01:22:33.248Z,-1.45
2023-01-11T01:24:59.804Z,-1.47
2023-01-11T01:27:26.775Z,-1.51
2023-01-11T01:29:53.376Z,-1.54
2023-01-11T01:32:19.934Z,-1.54
2023-01-11T01:34:46.575Z,-1.63
2023-01-11T01:37:14.887Z,-1.64
2023-01-11T01:39:41.939Z,-1.60
2023-01-11T01:42:16.366Z,-1.53
2023-01-11T01:45:25.064Z,-1.49
2023-01-11T01:48:02.250Z,-1.60
2023-01-11T01:50:48.943Z,-1.70
2023-01-11T01:53:41.603Z,-1.63
2023-01-11T01:56:36.819Z,-1.67
2023-01-11T01:59:08.989Z,-1.68
2023-01-11T02:01:53.642Z,-1.68
2023-01-11T02:04:28.269Z,-1.72
2023-01-11T02:07:08.934Z,-1.76
2023-01-11T02:09:42.332Z,-1.77
2023-01-11T02:12:09.315Z,-1.73
2023-01-11T02:14:38.185Z,-1.82
2023-01-11T02:17:04.914Z,-1.82
2023-01-11T02:19:59.515Z,-1.76
2023-01-11T02:22:34.884Z,-1.82
2023-01-11T02:25:39.038Z,-1.83
2023-01-11T02:28:14.919Z,-1.83
2023-01-11T02:31:20.461Z,-1.81
2023-01-11T02:33:57.956Z,-1.81
2023-01-11T02:37:03.682Z,-1.81
2023-01-11T02:39:36.428Z,-1.80
2023-01-11T02:42:30.911Z,-1.86
2023-01-11T02:45:06.719Z,-1.86
2023-01-11T02:47:58.394Z,-1.89
2023-01-11T02:50:47.954Z,-1.89
2023-01-11T02:53:32.289Z,-2.06
2023-01-11T02:56:02.472Z,-2.18
2023-01-11T02:58:32.722Z,-2.47
2023-01-11T03:01:00.526Z,-2.67
2023-01-11T03:03:27.855Z,-2.67
2023-01-11T03:06:15.365Z,-2.88
2023-01-11T03:09:06.663Z,-2.96
2023-01-11T03:11:58.093Z,-2.98
2023-01-11T03:14:42.846Z,-2.94
2023-01-11T03:17:27.836Z,-2.83
2023-01-11T03:20:01.515Z,-2.96
2023-01-11T03:23:09.612Z,-3.14
2023-01-11T03:25:57.592Z,-3.26
2023-01-11T03:28:36.038Z,-3.29
2023-01-11T03:31:11.836Z,-3.38
2023-01-11T03:34:02.553Z,-3.37
2023-01-11T03:36:38.104Z,-3.41
2023-01-11T03:39:30.030Z,-3.15
2023-01-11T03:42:00.078Z,-3.12
2023-01-11T03:44:31.557Z,-3.23
2023-01-11T03:47:05.052Z,-3.16
2023-01-11T03:49:37.674Z,-3.00
2023-01-11T03:52:08.898Z,-2.76
2023-01-11T03:54:36.593Z,-2.67
2023-01-11T03:57:08.744Z,-2.50
2023-01-11T03:59:35.390Z,-2.15
2023-01-11T04:02:02.588Z,-2.17
2023-01-11T04:04:29.473Z,-2.32
2023-01-11T04:06:56.929Z,-2.32
2023-01-11T04:09:23.542Z,-2.36
2023-01-11T04:11:50.106Z,-2.25
2023-01-11T04:14:16.636Z,-2.20
2023-01-11T04:16:43.213Z,-2.23
2023-01-11T04:19:09.761Z,-2.25
2023-01-11T04:21:36.287Z,-2.40
2023-01-11T04:24:02.920Z,-2.51
2023-01-11T04:26:29.421Z,-2.44
2023-01-11T04:28:55.946Z,-2.46
2023-01-11T04:31:22.501Z,-2.29
2023-01-11T04:33:49.061Z,-2.23
2023-01-11T04:36:15.625Z,-2.13
2023-01-11T04:38:42.302Z,-2.11
2023-01-11T04:41:27.463Z,-2.11
2023-01-11T04:43:56.324Z,-1.92
2023-01-11T04:46:23.624Z,-1.95
2023-01-11T04:48:50.791Z,-1.94
2023-01-11T04:51:17.653Z,-1.85
2023-01-11T04:53:46.624Z,-1.82
2023-01-11T04:56:13.335Z,-1.87
2023-01-11T04:58:39.868Z,-1.84
2023-01-11T05:01:19.071Z,-1.87
2023-01-11T05:03:46.355Z,-1.92
2023-01-11T05:06:14.197Z,-1.93
2023-01-11T05:08:44.920Z,-1.94
2023-01-11T05:11:11.632Z,-1.93
2023-01-11T05:13:43.903Z,-2.04
2023-01-11T05:16:23.610Z,-2.05
2023-01-11T05:18:55.856Z,-2.09
2023-01-11T05:21:24.919Z,-2.15
2023-01-11T05:23:52.021Z,-2.14
2023-01-11T05:26:23.207Z,-2.15
2023-01-11T05:28:51.489Z,-2.14
2023-01-11T05:31:18.975Z,-2.18
2023-01-11T05:33:46.012Z,-2.29
2023-01-11T05:36:15.178Z,-2.38
2023-01-11T05:38:41.922Z,-2.34
2023-01-11T05:41:10.199Z,-2.30
2023-01-11T05:43:55.848Z,-2.40
2023-01-11T05:46:22.890Z,-2.40
2023-01-11T05:48:50.128Z,-2.41
2023-01-11T05:51:16.989Z,-2.47
2023-01-11T05:53:44.322Z,-2.45
2023-01-11T05:56:11.108Z,-2.38
2023-01-11T05:58:37.735Z,-2.40
2023-01-11T06:01:04.824Z,-2.34
2023-01-11T06:03:32.955Z,-2.34
2023-01-11T06:06:00.053Z,-2.36
2023-01-11T06:08:26.768Z,-2.73
2023-01-11T06:10:54.634Z,-3.14
2023-01-11T06:13:27.923Z,-3.26
2023-01-11T06:16:05.733Z,-3.22
2023-01-11T06:18:44.232Z,-3.48
2023-01-11T06:21:11.304Z,-3.71
2023-01-11T06:23:40.856Z,-3.78
2023-01-11T06:26:09.827Z,-3.87
2023-01-11T06:28:37.154Z,-3.96
2023-01-11T06:31:04.935Z,-3.96
2023-01-11T06:33:32.674Z,-3.94
2023-01-11T06:35:59.325Z,-3.96
2023-01-11T06:38:26.557Z,-4.16
2023-01-11T06:40:58.723Z,-4.30
2023-01-11T06:43:26.559Z,-4.44
2023-01-11T06:45:53.301Z,-4.07
2023-01-11T06:48:21.760Z,-4.09
2023-01-11T06:50:49.489Z,-4.25
2023-01-11T06:53:16.538Z,-4.44
2023-01-11T06:55:43.311Z,-4.56
2023-01-11T06:58:10.234Z,-4.61
2023-01-11T07:00:36.923Z,-4.70
2023-01-11T07:03:05.841Z,-4.64
2023-01-11T07:05:34.580Z,-4.59
2023-01-11T07:08:01.646Z,-4.58
2023-01-11T07:10:28.957Z,-4.52
2023-01-11T07:12:55.499Z,-4.41
2023-01-11T07:15:22.289Z,-4.21
2023-01-11T07:17:54.259Z,-4.01
2023-01-11T07:20:21.096Z,-3.91
2023-01-11T07:22:47.614Z,-3.71
2023-01-11T07:25:14.331Z,-3.62
2023-01-11T07:27:40.858Z,-3.50
2023-01-11T07:30:09.853Z,-3.46
2023-01-11T07:32:36.836Z,-3.41
2023-01-11T07:35:03.707Z,-3.06
2023-01-11T07:37:32.707Z,-2.61
2023-01-11T07:39:59.327Z,-2.33
2023-01-11T07:42:48.754Z,-2.24
2023-01-11T07:45:15.341Z,-2.11
2023-01-11T07:47:41.934Z,-1.90
2023-01-11T07:50:08.980Z,-1.63
2023-01-11T07:52:35.518Z,-1.35
2023-01-11T07:55:02.812Z,-1.15
2023-01-11T07:57:33.137Z,-1.05
2023-01-11T07:59:59.640Z,-0.97
2023-01-11T08:02:26.417Z,-0.95
2023-01-11T08:04:53.026Z,-0.81
2023-01-11T08:07:19.579Z,-0.81
2023-01-11T08:09:46.111Z,-0.68
2023-01-11T08:12:31.360Z,-0.57
2023-01-11T08:14:57.866Z,-0.43
2023-01-11T08:17:24.597Z,-0.18
2023-01-11T08:19:51.229Z,0.02
2023-01-11T08:22:18.193Z,-0.08
2023-01-11T08:24:44.792Z,-0.17
2023-01-11T08:27:11.455Z,-0.14
2023-01-11T08:29:38.169Z,-0.10
2023-01-11T08:32:04.958Z,-0.13
2023-01-11T08:34:33.612Z,-0.06
2023-01-11T08:37:02.120Z,-0.03
2023-01-11T08:39:32.081Z,-0.06
2023-01-11T08:41:59.649Z,-0.08
2023-01-11T08:44:34.190Z,-0.11
2023-01-11T08:47:01.427Z,0.03
2023-01-11T08:49:27.981Z,0.09
2023-01-11T08:51:54.571Z,0.24
2023-01-11T08:54:21.101Z,0.46
2023-01-11T08:56:48.139Z,0.58
2023-01-11T08:59:14.740Z,0.73
2023-01-11T09:01:41.426Z,0.71
2023-01-11T09:04:23.100Z,0.81
2023-01-11T09:06:51.246Z,0.77
2023-01-11T09:09:17.913Z,0.92
2023-01-11T09:12:04.112Z,1.14
2023-01-11T09:14:32.227Z,1.12
2023-01-11T09:16:58.813Z,1.19
2023-01-11T09:19:25.744Z,1.26
2023-01-11T09:21:53.163Z,1.26
2023-01-11T09:24:19.741Z,1.37
2023-01-11T09:26:46.310Z,1.52
2023-01-11T09:29:12.963Z,1.55
2023-01-11T09:31:39.883Z,1.63
2023-01-11T09:34:08.197Z,1.90
2023-01-11T09:36:36.343Z,2.02
2023-01-11T09:39:07.642Z,2.09
2023-01-11T09:41:38.695Z,2.39
2023-01-11T09:44:16.379Z,2.38
2023-01-11T09:46:48.319Z,2.42
2023-01-11T09:49:25.509Z,2.62
2023-01-11T09:51:54.668Z,2.71
2023-01-11T09:54:27.017Z,2.76
2023-01-11T09:57:13.984Z,2.94
2023-01-11T09:59:52.859Z,2.93
2023-01-11T10:02:42.490Z,2.88
2023-01-11T10:05:29.788Z,3.01
2023-01-11T10:18:29.797Z,3.52
2023-01-11T10:18:33.481Z,3.70
2023-01-11T10:21:01.954Z,3.61
2023-01-11T10:23:29.014Z,3.67
2023-01-11T10:25:59.199Z,3.77
2023-01-11T10:28:43.147Z,4.03
2023-01-11T10:31:29.768Z,4.55
2023-01-11T10:34:33.006Z,4.63
2023-01-11T10:37:27.987Z,4.79
2023-01-11T10:40:33.189Z,5.27
2023-01-11T10:43:22.575Z,5.46
2023-01-11T10:45:53.407Z,5.70
2023-01-11T10:48:39.116Z,5.69
2023-01-11T10:51:29.931Z,5.66
2023-01-11T10:54:27.569Z,5.97
2023-01-11T10:57:14.037Z,6.10
2023-01-11T11:00:14.601Z,6.31
2023-01-11T11:02:56.147Z,6.32
2023-01-11T11:05:44.869Z,6.39
2023-01-11T11:08:17.679Z,6.26
2023-01-11T11:11:03.336Z,5.91
2023-01-11T11:14:02.199Z,5.67
2023-01-11T11:16:46.895Z,5.56
2023-01-11T11:19:21.936Z,5.54
2023-01-11T11:21:49.751Z,5.44
2023-01-11T11:24:33.652Z,5.46
2023-01-11T11:27:08.349Z,5.29
2023-01-11T11:29:42.383Z,5.17
2023-01-11T11:32:22.992Z,5.05
2023-01-11T11:34:50.735Z,4.99
2023-01-11T11:37:24.173Z,4.94
2023-01-11T11:39:52.234Z,4.96
2023-01-11T11:42:23.203Z,4.97
2023-01-11T11:45:17.038Z,4.90
2023-01-11T11:47:49.341Z,4.69
2023-01-11T11:50:31.823Z,4.68
2023-01-11T11:53:06.061Z,4.22
2023-01-11T11:55:34.760Z,4.16
2023-01-11T11:58:13.159Z,4.27
2023-01-11T12:00:51.290Z,4.16
2023-01-11T12:03:23.560Z,3.87
2023-01-11T12:06:03.013Z,4.07
2023-01-11T12:08:32.693Z,3.87
2023-01-11T12:11:07.846Z,4.04
2023-01-11T12:13:39.374Z,3.92
2023-01-11T12:16:20.316Z,4.08
2023-01-11T12:18:47.003Z,4.17
2023-01-11T12:21:21.251Z,4.30
2023-01-11T12:23:48.939Z,4.36
2023-01-11T12:26:18.162Z,4.44
2023-01-11T12:28:56.919Z,4.50
2023-01-11T12:31:39.099Z,4.52
2023-01-11T12:34:42.813Z,4.24
2023-01-11T12:37:25.663Z,4.13
2023-01-11T12:40:08.066Z,3.91
2023-01-11T12:42:52.658Z,4.03
2023-01-11T12:45:34.416Z,3.96
2023-01-11T12:48:45.690Z,4.17
2023-01-11T12:51:36.132Z,4.05
2023-01-11T12:54:17.841Z,4.12
2023-01-11T12:56:49.972Z,4.38
2023-01-11T12:59:35.224Z,4.73
2023-01-11T13:02:07.731Z,4.72
2023-01-11T13:04:46.156Z,4.71
2023-01-11T13:07:42.176Z,4.45
2023-01-11T13:10:31.730Z,4.65
2023-01-11T13:12:58.202Z,4.73
2023-01-11T13:15:42.166Z,4.79
2023-01-11T13:18:18.374Z,4.80
2023-01-11T13:21:01.678Z,4.71
2023-01-11T13:23:47.171Z,4.65
2023-01-11T13:26:36.208Z,4.41
2023-01-11T13:29:16.722Z,4.24
2023-01-11T13:31:46.758Z,4.13
2023-01-11T13:34:25.601Z,3.95
2023-01-11T13:37:06.195Z,3.87
2023-01-11T13:39:42.280Z,4.03
2023-01-11T13:42:17.653Z,4.12
2023-01-11T13:44:51.648Z,4.18
2023-01-11T13:47:29.305Z,4.27
2023-01-11T13:50:23.691Z,4.27
2023-01-11T13:53:15.347Z,4.20
2023-01-11T13:56:08.522Z,4.12
2023-01-11T13:58:58.012Z,4.03
2023-01-11T14:01:35.602Z,4.03
2023-01-11T14:04:10.026Z,3.95
2023-01-11T14:06:45.689Z,3.94
2023-01-11T14:09:21.258Z,3.74
2023-01-11T14:12:05.177Z,3.62
2023-01-11T14:14:37.830Z,3.47
2023-01-11T14:17:45.833Z,3.28
2023-01-11T14:20:26.230Z,3.09
2023-01-11T14:23:13.322Z,3.04
2023-01-11T14:26:04.171Z,2.91
2023-01-11T14:28:59.983Z,2.75
2023-01-11T14:32:11.300Z,2.58
2023-01-11T14:34:56.702Z,2.48
2023-01-11T14:37:39.646Z,2.37
2023-01-11T14:40:18.646Z,2.28
2023-01-11T14:43:22.805Z,2.17
2023-01-11T14:46:10.919Z,2.06
2023-01-11T14:49:02.918Z,1.99
2023-01-11T14:51:33.265Z,1.87
2023-01-11T14:54:09.151Z,1.70
2023-01-11T14:56:44.597Z,1.56
2023-01-11T14:59:30.820Z,1.49
2023-01-11T15:02:03.725Z,1.36
2023-01-11T15:04:52.307Z,1.22
2023-01-11T15:07:35.387Z,1.15
2023-01-11T15:10:25.136Z,1.04
2023-01-11T15:12:56.252Z,1.01
2023-01-11T15:15:47.678Z,0.91
2023-01-11T15:18:23.055Z,0.84
2023-01-11T15:21:02.466Z,0.79
2023-01-11T15:23:34.945Z,0.73
2023-01-11T15:26:04.486Z,0.72
2023-01-11T15:28:52.252Z,0.79
2023-01-11T15:31:35.549Z,0.82
2023-01-11T15:34:17.296Z,0.82
2023-01-11T15:36:58.222Z,0.84
2023-01-11T15:40:03.679Z,0.90
2023-01-11T15:42:48.342Z,0.94
2023-01-11T15:45:36.196Z,1.01
2023-01-11T15:48:23.609Z,1.10
2023-01-11T15:51:15.093Z,1.05
2023-01-11T15:53:56.062Z,1.01
2023-01-11T15:56:43.736Z,1.00
2023-01-11T15:59:47.225Z,1.03
2023-01-11T16:02:13.774Z,0.99
2023-01-11T16:05:01.741Z,0.98
2023-01-11T16:07:49.218Z,0.97
2023-01-11T16:10:34.103Z,0.97
2023-01-11T16:13:19.873Z,0.99
2023-01-11T16:15:52.352Z,1.00
2023-01-11T16:18:29.875Z,1.05
2023-01-11T16:21:09.670Z,1.01
2023-01-11T16:23:37.012Z,0.99
2023-01-11T16:26:04.990Z,0.97
2023-01-11T16:28:31.571Z,0.98
2023-01-11T16:31:01.452Z,0.98
2023-01-11T16:33:33.349Z,0.95
2023-01-11T16:36:06.956Z,0.98
2023-01-11T16:38:44.618Z,1.01
2023-01-11T16:41:14.509Z,1.10
2023-01-11T16:43:49.384Z,1.14
2023-01-11T16:46:45.247Z,1.18
2023-01-11T16:49:16.201Z,1.22
2023-01-11T16:51:43.159Z,1.19
2023-01-11T16:54:32.082Z,1.23
2023-01-11T16:57:01.019Z,1.31
2023-01-11T16:59:30.986Z,1.36
2023-01-11T17:02:00.041Z,1.40
2023-01-11T17:04:29.363Z,1.41
2023-01-11T17:06:57.637Z,1.33
2023-01-11T17:09:25.962Z,1.29
2023-01-11T17:11:53.199Z,1.15
2023-01-11T17:14:55.596Z,1.01
2023-01-11T17:17:23.289Z,0.93
2023-01-11T17:19:50.755Z,0.91
2023-01-11T17:22:30.255Z,0.94
2023-01-11T17:25:00.001Z,0.99
2023-01-11T17:27:37.297Z,1.02
2023-01-11T17:30:05.635Z,1.02
2023-01-11T17:32:38.827Z,1.05
2023-01-11T17:35:17.418Z,1.08
2023-01-11T17:37:50.133Z,1.07
2023-01-11T17:40:38.875Z,1.11
2023-01-11T17:43:30.344Z,1.06
2023-01-11T17:45:58.618Z,0.93
2023-01-11T17:48:29.493Z,0.89
2023-01-11T17:50:58.676Z,0.97
2023-01-11T17:53:26.880Z,0.91
2023-01-11T17:56:01.352Z,0.91
2023-01-11T17:58:33.548Z,0.88
2023-01-11T18:01:09.007Z,0.87
2023-01-11T18:03:48.698Z,0.94
2023-01-11T18:06:29.378Z,0.95
2023-01-11T18:08:57.538Z,0.95
2023-01-11T18:11:29.753Z,0.98
2023-01-11T18:13:59.906Z,1.02
2023-01-11T18:16:26.923Z,1.00
2023-01-11T18:18:54.701Z,1.04
2023-01-11T18:21:27.016Z,1.06
2023-01-11T18:24:11.786Z,1.14
2023-01-11T18:26:47.186Z,1.04
2023-01-11T18:29:42.366Z,1.07
2023-01-11T18:32:14.022Z,1.36
2023-01-11T18:34:41.619Z,1.56
2023-01-11T18:37:10.978Z,1.46
2023-01-11T18:39:38.011Z,1.41
2023-01-11T18:42:08.255Z,1.29
2023-01-11T18:44:36.371Z,1.16
2023-01-11T18:47:21.287Z,1.17
2023-01-11T18:49:49.307Z,1.06
2023-01-11T18:52:16.537Z,1.02
2023-01-11T18:54:43.454Z,0.98
2023-01-11T18:57:10.544Z,0.93
2023-01-11T18:59:37.206Z,0.93
2023-01-11T19:02:24.787Z,0.89
2023-01-11T19:04:52.558Z,0.99
2023-01-11T19:07:19.157Z,0.89
2023-01-11T19:09:45.745Z,0.84
2023-01-11T19:12:13.235Z,0.89
2023-01-11T19:14:40.419Z,0.82
2023-01-11T19:17:11.268Z,1.02
2023-01-11T19:19:38.087Z,0.94
2023-01-11T19:22:05.433Z,0.99
2023-01-11T19:24:32.267Z,0.97
2023-01-11T19:26:58.935Z,1.07
2023-01-11T19:29:25.771Z,1.12
2023-01-11T19:31:53.521Z,1.07
2023-01-11T19:34:20.257Z,0.96
2023-01-11T19:36:48.193Z,0.94
2023-01-11T19:39:14.767Z,0.98
2023-01-11T19:41:59.876Z,0.98
2023-01-11T19:44:35.072Z,0.93
2023-01-11T19:47:11.435Z,1.05
2023-01-11T19:49:39.711Z,1.06
2023-01-11T19:52:12.370Z,0.96
2023-01-11T19:54:43.416Z,0.97
2023-01-11T19:57:13.988Z,1.05
2023-01-11T19:59:41.187Z,0.95
2023-01-11T20:02:08.039Z,0.95
2023-01-11T20:04:34.653Z,0.92
2023-01-11T20:07:01.178Z,0.90
2023-01-11T20:09:27.752Z,0.89
2023-01-11T20:11:55.537Z,0.84
2023-01-11T20:14:22.293Z,0.87
2023-01-11T20:16:48.930Z,0.84
2023-01-11T20:19:15.611Z,0.87
2023-01-11T20:21:42.072Z,0.89
2023-01-11T20:24:12.193Z,0.87
2023-01-11T20:26:39.147Z,0.77
2023-01-11T20:29:06.502Z,0.70
2023-01-11T20:31:35.386Z,0.52
2023-01-11T20:34:10.672Z,0.33
2023-01-11T20:36:37.579Z,0.34
2023-01-11T20:39:05.487Z,0.27
2023-01-11T20:41:47.141Z,0.26
2023-01-11T20:44:16.513Z,0.19
2023-01-11T20:46:46.251Z,0.11
2023-01-11T20:49:14.553Z,-0.12
2023-01-11T20:51:41.381Z,-0.24
2023-01-11T20:54:08.343Z,-0.34
2023-01-11T20:56:35.275Z,-0.33
2023-01-11T20:59:02.597Z,-0.24
2023-01-11T21:01:30.397Z,-0.22
2023-01-11T21:04:05.928Z,-0.17
2023-01-11T21:06:33.907Z,-0.10
2023-01-11T21:09:01.746Z,-0.10
2023-01-11T21:11:29.306Z,-0.10
2023-01-11T21:16:24.365Z,-0.07
2023-01-11T21:18:59.122Z,-0.19
2023-01-11T21:21:27.866Z,-0.08
2023-01-11T21:23:56.694Z,0.06
2023-01-11T21:26:24.091Z,0.12
2023-01-11T21:28:58.702Z,-0.02
2023-01-11T21:31:31.488Z,-0.04
2023-01-11T21:33:58.902Z,-0.02
2023-01-11T21:36:27.533Z,-0.12
2023-01-11T21:38:55.252Z,-0.31
2023-01-11T21:41:42.482Z,-0.38
2023-01-11T21:44:10.357Z,-0.53
2023-01-11T21:46:37.266Z,-0.52
2023-01-11T21:49:03.945Z,-0.50
2023-01-11T21:51:30.549Z,-0.45
2023-01-11T21:53:57.635Z,-0.36
2023-01-11T21:56:24.397Z,-0.38
2023-01-11T21:58:51.701Z,-0.37
2023-01-11T22:01:22.016Z,-0.28
2023-01-11T22:03:48.874Z,-0.24
2023-01-11T22:06:15.932Z,-0.22
2023-01-11T22:08:46.727Z,-0.13
2023-01-11T22:11:15.971Z,-0.14
2023-01-11T22:13:43.207Z,-0.14
2023-01-11T22:16:17.549Z,-0.18
2023-01-11T22:18:45.755Z,-0.16
2023-01-11T22:21:17.975Z,-0.07
2023-01-11T22:23:47.035Z,0.00
2023-01-11T22:26:16.237Z,-0.06
2023-01-11T22:29:02.344Z,-0.20
2023-01-11T22:31:29.893Z,-0.35
2023-01-11T22:33:57.482Z,-0.39
2023-01-11T22:36:25.458Z,-0.32
2023-01-11T22:38:53.057Z,-0.18
2023-01-11T22:41:20.198Z,-0.18
2023-01-11T22:43:47.796Z,-0.25
2023-01-11T22:46:16.568Z,-0.30
2023-01-11T22:48:43.539Z,-0.31
2023-01-11T22:51:11.351Z,-0.25
2023-01-11T22:53:38.672Z,-0.23
2023-01-11T22:56:06.300Z,-0.28
2023-01-11T22:58:33.210Z,-0.38
2023-01-11T23:01:16.833Z,-0.41
2023-01-11T23:03:45.341Z,-0.38
2023-01-11T23:06:13.035Z,-0.32
2023-01-11T23:08:41.589Z,-0.37
2023-01-11T23:11:15.669Z,-0.45
2023-01-11T23:13:55.100Z,-0.30
2023-01-11T23:16:22.889Z,-0.35
2023-01-11T23:18:49.862Z,-0.23
2023-01-11T23:21:16.980Z,-0.07
2023-01-11T23:23:43.991Z,-0.06
2023-01-11T23:26:17.913Z,-0.14
2023-01-11T23:28:45.805Z,-0.17
2023-01-11T23:31:18.670Z,-0.17
2023-01-11T23:33:51.199Z,-0.17
2023-01-11T23:36:20.480Z,-0.10
2023-01-11T23:38:48.062Z,-0.06
2023-01-11T23:41:35.680Z,0.02
2023-01-11T23:44:04.212Z,0.07
2023-01-11T23:46:49.565Z,0.10
2023-01-11T23:49:16.249Z,0.02
2023-01-11T23:51:42.944Z,-0.23
2023-01-11T23:54:10.550Z,-0.34
2023-01-11T23:56:37.487Z,-0.39
2023-01-11T23:59:05.002Z,-0.37
